createdAt,value
2023-08-30T00:00:42.825Z,99.69
2023-08-30T00:03:30.624Z,99.32
2023-08-30T00:06:04.080Z,99.24
2023-08-30T00:08:32.991Z,98.82
2023-08-30T00:11:00.829Z,98.49
2023-08-30T00:13:31.087Z,98.57
2023-08-30T00:15:58.921Z,98.90
2023-08-30T00:18:26.659Z,99.79
2023-08-30T00:20:54.745Z,99.75
2023-08-30T00:23:22.569Z,99.78
2023-08-30T00:25:50.510Z,99.78
2023-08-30T00:28:18.327Z,98.88
2023-08-30T00:30:46.159Z,99.36
2023-08-30T00:33:14.062Z,99.46
2023-08-30T00:35:41.758Z,99.29
2023-08-30T00:38:09.879Z,99.01
2023-08-30T00:40:41.478Z,99.11
2023-08-30T00:43:09.375Z,99.36
2023-08-30T00:45:41.056Z,98.87
2023-08-30T00:48:09.248Z,98.97
2023-08-30T00:50:37.943Z,99.61
2023-08-30T00:53:07.932Z,100.00
2023-08-30T00:55:36.346Z,99.56
2023-08-30T00:58:04.769Z,99.77
2023-08-30T01:00:32.602Z,99.37
2023-08-30T01:03:00.815Z,99.43
2023-08-30T01:05:29.507Z,99.46
2023-08-30T01:07:57.466Z,99.50
2023-08-30T01:11:19.739Z,99.84
2023-08-30T01:14:09.357Z,100.00
2023-08-30T01:16:38.163Z,100.00
2023-08-30T01:19:35.107Z,99.44
2023-08-30T01:22:11.867Z,99.75
2023-08-30T01:24:57.852Z,99.95
2023-08-30T01:27:26.836Z,99.97
2023-08-30T01:29:57.400Z,99.85
2023-08-30T01:32:27.108Z,99.95
2023-08-30T01:34:55.330Z,99.36
2023-08-30T01:37:24.473Z,99.01
2023-08-30T01:39:53.336Z,99.56
2023-08-30T01:42:23.385Z,99.97
2023-08-30T01:44:52.734Z,99.62
2023-08-30T01:47:20.709Z,99.97
2023-08-30T01:49:49.308Z,100.00
2023-08-30T01:52:17.636Z,99.89
2023-08-30T01:54:47.579Z,99.93
2023-08-30T01:57:15.393Z,100.00
2023-08-30T01:59:43.103Z,99.93
2023-08-30T02:02:10.882Z,99.55
2023-08-30T02:04:38.845Z,99.82
2023-08-30T02:07:17.267Z,99.90
2023-08-30T02:10:09.691Z,99.96
2023-08-30T02:12:48.371Z,99.98
2023-08-30T02:15:18.513Z,99.87
2023-08-30T02:17:47.068Z,99.88
2023-08-30T02:20:14.835Z,99.93
2023-08-30T02:22:42.495Z,99.81
2023-08-30T02:25:11.180Z,99.68
2023-08-30T02:27:38.941Z,99.74
2023-08-30T02:30:07.421Z,99.84
2023-08-30T02:32:35.668Z,99.75
2023-08-30T02:35:04.497Z,98.99
2023-08-30T02:37:32.263Z,98.91
2023-08-30T02:39:59.994Z,99.35
2023-08-30T02:42:27.747Z,98.94
2023-08-30T02:44:55.541Z,98.82
2023-08-30T02:47:23.198Z,99.58
2023-08-30T02:49:50.830Z,99.53
2023-08-30T02:52:19.225Z,99.12
2023-08-30T02:54:47.168Z,99.16
2023-08-30T02:57:15.097Z,98.90
2023-08-30T02:59:42.992Z,99.30
2023-08-30T03:02:10.731Z,99.65
2023-08-30T03:04:39.822Z,99.70
2023-08-30T03:07:07.828Z,99.48
2023-08-30T03:09:35.654Z,99.52
2023-08-30T03:12:03.760Z,99.35
2023-08-30T03:14:33.835Z,99.30
2023-08-30T03:17:01.530Z,99.33
2023-08-30T03:19:29.585Z,99.28
2023-08-30T03:21:57.315Z,99.14
2023-08-30T03:24:24.972Z,99.41
2023-08-30T03:26:52.656Z,99.27
2023-08-30T03:29:20.791Z,99.11
2023-08-30T03:31:48.924Z,99.06
2023-08-30T03:34:17.354Z,99.14
2023-08-30T03:36:45.663Z,99.12
2023-08-30T03:39:13.894Z,99.14
2023-08-30T03:41:41.686Z,99.26
2023-08-30T03:44:09.406Z,99.13
2023-08-30T03:46:37.175Z,98.88
2023-08-30T03:49:05.072Z,98.86
2023-08-30T03:51:32.794Z,98.80
2023-08-30T03:54:01.399Z,98.87
2023-08-30T03:56:29.072Z,99.22
2023-08-30T03:58:56.814Z,98.94
2023-08-30T04:01:24.525Z,99.20
2023-08-30T04:03:52.301Z,99.19
2023-08-30T04:06:20.185Z,99.18
2023-08-30T04:08:50.037Z,99.34
2023-08-30T04:11:18.554Z,99.63
2023-08-30T04:13:47.024Z,99.89
2023-08-30T04:16:15.283Z,99.83
2023-08-30T04:18:42.950Z,99.81
2023-08-30T04:21:10.628Z,99.72
2023-08-30T04:23:38.263Z,99.24
2023-08-30T04:26:06.581Z,99.42
2023-08-30T04:28:35.197Z,99.91
2023-08-30T04:34:27.602Z,100.00
2023-08-30T04:36:55.388Z,100.00
2023-08-30T04:39:25.731Z,100.00
2023-08-30T04:41:54.417Z,100.00
2023-08-30T04:44:25.400Z,100.00
2023-08-30T04:46:53.630Z,100.00
2023-08-30T04:49:22.978Z,100.00
2023-08-30T04:51:50.756Z,99.98
2023-08-30T04:54:18.606Z,100.00
2023-08-30T04:56:46.590Z,100.00
2023-08-30T04:59:14.571Z,100.00
2023-08-30T05:01:45.397Z,100.00
2023-08-30T05:04:14.005Z,100.00
2023-08-30T05:06:41.763Z,100.00
2023-08-30T05:09:09.872Z,100.00
2023-08-30T05:11:38.018Z,100.00
2023-08-30T05:14:05.738Z,100.00
2023-08-30T05:16:35.293Z,100.00
2023-08-30T05:19:03.517Z,100.00
2023-08-30T05:21:31.221Z,100.00
2023-08-30T05:23:59.193Z,100.00
2023-08-30T05:26:27.358Z,100.00
2023-08-30T05:28:55.086Z,100.00
2023-08-30T05:31:22.815Z,100.00
2023-08-30T05:34:14.117Z,100.00
2023-08-30T05:37:11.708Z,100.00
2023-08-30T05:39:58.861Z,100.00
2023-08-30T05:42:26.836Z,100.00
2023-08-30T05:44:57.579Z,100.00
2023-08-30T05:47:25.403Z,100.00
2023-08-30T05:49:53.199Z,100.00
2023-08-30T05:52:22.028Z,100.00
2023-08-30T05:54:50.312Z,100.00
2023-08-30T05:57:19.030Z,100.00
2023-08-30T05:59:47.351Z,100.00
2023-08-30T06:02:15.463Z,100.00
2023-08-30T06:04:45.597Z,100.00
2023-08-30T06:07:13.400Z,100.00
2023-08-30T06:09:41.071Z,100.00
2023-08-30T06:12:09.178Z,100.00
2023-08-30T06:14:36.991Z,100.00
2023-08-30T06:17:04.908Z,100.00
2023-08-30T06:19:32.574Z,100.00
2023-08-30T06:22:00.441Z,100.00
2023-08-30T06:24:28.875Z,100.00
2023-08-30T06:26:57.447Z,100.00
2023-08-30T06:29:25.233Z,100.00
2023-08-30T06:31:53.051Z,100.00
2023-08-30T06:34:20.781Z,100.00
2023-08-30T06:36:49.094Z,100.00
2023-08-30T06:39:18.840Z,100.00
2023-08-30T06:41:46.642Z,100.00
2023-08-30T06:44:15.666Z,100.00
2023-08-30T06:46:44.001Z,100.00
2023-08-30T06:49:12.614Z,100.00
2023-08-30T06:51:40.474Z,100.00
2023-08-30T06:54:08.205Z,100.00
2023-08-30T06:56:36.237Z,100.00
2023-08-30T06:59:04.239Z,100.00
2023-08-30T07:01:33.388Z,100.00
2023-08-30T07:04:03.131Z,100.00
2023-08-30T07:06:32.085Z,100.00
2023-08-30T07:08:59.960Z,100.00
2023-08-30T07:11:33.986Z,100.00
2023-08-30T07:14:05.457Z,100.00
2023-08-30T07:16:33.179Z,100.00
2023-08-30T07:19:02.669Z,100.00
2023-08-30T07:21:30.591Z,100.00
2023-08-30T07:23:58.410Z,100.00
2023-08-30T07:26:26.155Z,100.00
2023-08-30T07:28:54.418Z,100.00
2023-08-30T07:31:22.822Z,100.00
2023-08-30T07:33:50.820Z,100.00
2023-08-30T07:36:18.644Z,100.00
2023-08-30T07:38:47.888Z,100.00
2023-08-30T07:41:15.669Z,100.00
2023-08-30T07:43:43.612Z,100.00
2023-08-30T07:46:11.429Z,100.00
2023-08-30T07:48:39.246Z,100.00
2023-08-30T07:51:06.995Z,100.00
2023-08-30T07:53:34.737Z,100.00
2023-08-30T07:56:02.985Z,100.00
2023-08-30T07:58:30.665Z,100.00
2023-08-30T08:00:58.390Z,100.00
2023-08-30T08:03:26.251Z,100.00
2023-08-30T08:05:54.131Z,100.00
2023-08-30T08:08:21.904Z,100.00
2023-08-30T08:10:49.687Z,100.00
2023-08-30T08:13:17.607Z,100.00
2023-08-30T08:15:45.427Z,100.00
2023-08-30T08:18:13.444Z,100.00
2023-08-30T08:20:41.391Z,100.00
2023-08-30T08:23:09.288Z,100.00
2023-08-30T08:25:37.129Z,100.00
2023-08-30T08:28:05.212Z,100.00
2023-08-30T08:30:32.900Z,100.00
2023-08-30T08:33:01.016Z,100.00
2023-08-30T08:35:28.762Z,100.00
2023-08-30T08:37:56.520Z,100.00
2023-08-30T08:40:41.119Z,100.00
2023-08-30T08:43:12.620Z,100.00
2023-08-30T08:45:40.881Z,100.00
2023-08-30T08:48:09.362Z,100.00
2023-08-30T08:50:37.988Z,100.00
2023-08-30T08:53:06.610Z,100.00
2023-08-30T08:55:35.718Z,100.00
2023-08-30T08:58:04.512Z,100.00
2023-08-30T09:00:32.691Z,100.00
2023-08-30T09:03:01.806Z,100.00
2023-08-30T09:05:30.898Z,100.00
2023-08-30T09:07:59.176Z,100.00
2023-08-30T09:10:26.879Z,100.00
2023-08-30T09:12:54.658Z,100.00
2023-08-30T09:15:23.572Z,100.00
2023-08-30T09:17:51.613Z,100.00
2023-08-30T09:20:21.784Z,100.00
2023-08-30T09:22:51.040Z,100.00
2023-08-30T09:25:27.010Z,100.00
2023-08-30T09:28:00.997Z,100.00
2023-08-30T09:30:29.576Z,100.00
2023-08-30T09:36:10.709Z,100.00
2023-08-30T09:38:39.924Z,100.00
2023-08-30T09:41:06.721Z,100.00
2023-08-30T09:43:36.629Z,100.00
2023-08-30T09:46:06.204Z,100.00
2023-08-30T09:48:33.162Z,100.00
2023-08-30T09:51:03.468Z,100.00
2023-08-30T09:53:33.834Z,100.00
2023-08-30T09:56:02.007Z,100.00
2023-08-30T09:58:28.796Z,100.00
2023-08-30T10:00:55.369Z,100.00
2023-08-30T10:03:31.465Z,100.00
2023-08-30T10:05:59.932Z,100.00
2023-08-30T10:08:31.574Z,100.00
2023-08-30T10:10:59.156Z,100.00
2023-08-30T10:13:26.233Z,100.00
2023-08-30T10:16:00.827Z,100.00
2023-08-30T10:18:29.966Z,100.00
2023-08-30T10:20:57.701Z,100.00
2023-08-30T10:23:26.205Z,100.00
2023-08-30T10:25:54.858Z,99.99
2023-08-30T10:28:23.637Z,100.00
2023-08-30T10:30:51.438Z,100.00
2023-08-30T10:33:18.966Z,100.00
2023-08-30T10:35:52.893Z,100.00
2023-08-30T10:38:27.383Z,100.00
2023-08-30T10:40:54.902Z,100.00
2023-08-30T10:43:34.235Z,100.00
2023-08-30T10:46:07.309Z,100.00
2023-08-30T10:48:41.188Z,100.00
2023-08-30T10:51:22.482Z,100.00
2023-08-30T10:54:00.440Z,100.00
2023-08-30T10:56:31.244Z,100.00
2023-08-30T10:58:57.897Z,100.00
2023-08-30T11:01:24.433Z,99.88
2023-08-30T11:03:52.221Z,99.94
2023-08-30T11:06:20.522Z,100.00
2023-08-30T11:08:49.030Z,99.97
2023-08-30T11:11:15.593Z,99.92
2023-08-30T11:13:42.090Z,99.97
2023-08-30T11:16:08.674Z,99.54
2023-08-30T11:18:42.903Z,99.81
2023-08-30T11:21:09.929Z,99.56
2023-08-30T11:23:36.668Z,99.29
2023-08-30T11:26:04.434Z,99.46
2023-08-30T11:28:30.879Z,99.38
2023-08-30T11:30:57.174Z,98.71
2023-08-30T11:33:23.488Z,98.94
2023-08-30T11:35:52.558Z,98.33
2023-08-30T11:38:20.285Z,98.77
2023-08-30T11:40:49.551Z,98.54
2023-08-30T11:43:16.122Z,98.03
2023-08-30T11:45:42.479Z,98.07
2023-08-30T11:48:09.367Z,98.04
2023-08-30T11:50:46.909Z,97.60
2023-08-30T11:53:14.991Z,96.83
2023-08-30T11:55:41.850Z,96.68
2023-08-30T11:58:09.140Z,97.20
2023-08-30T12:00:35.849Z,96.47
2023-08-30T12:03:02.906Z,96.17
2023-08-30T12:05:34.151Z,96.59
2023-08-30T12:08:01.336Z,96.57
2023-08-30T12:10:30.436Z,96.01
2023-08-30T12:12:57.107Z,95.93
2023-08-30T12:15:26.046Z,95.82
2023-08-30T12:17:52.415Z,94.89
2023-08-30T12:20:20.885Z,95.33
2023-08-30T12:22:48.631Z,95.20
2023-08-30T12:25:18.470Z,95.50
2023-08-30T12:27:45.263Z,95.68
2023-08-30T12:30:12.051Z,95.91
2023-08-30T12:32:38.384Z,95.20
2023-08-30T12:35:05.289Z,95.25
2023-08-30T12:37:31.631Z,95.96
2023-08-30T12:39:57.943Z,96.26
2023-08-30T12:42:26.769Z,96.79
2023-08-30T12:44:53.070Z,97.92
2023-08-30T12:47:19.345Z,97.51
2023-08-30T12:49:45.759Z,96.94
2023-08-30T12:52:12.244Z,96.27
2023-08-30T12:54:38.809Z,97.30
2023-08-30T12:57:05.163Z,96.91
2023-08-30T12:59:31.479Z,96.59
2023-08-30T13:02:00.615Z,97.78
2023-08-30T13:04:27.105Z,97.35
2023-08-30T13:06:53.568Z,97.11
2023-08-30T13:09:21.987Z,96.85
2023-08-30T13:11:48.305Z,96.52
2023-08-30T13:14:14.604Z,96.04
2023-08-30T13:16:41.012Z,95.86
2023-08-30T13:19:07.442Z,95.66
2023-08-30T13:21:41.062Z,96.39
2023-08-30T13:24:08.252Z,96.26
2023-08-30T13:26:34.554Z,96.29
2023-08-30T13:29:02.667Z,95.32
2023-08-30T13:31:29.034Z,95.47
2023-08-30T13:33:55.448Z,94.08
2023-08-30T13:36:21.800Z,94.04
2023-08-30T13:38:48.294Z,92.43
2023-08-30T13:41:14.660Z,92.49
2023-08-30T13:43:41.042Z,92.34
2023-08-30T13:46:07.428Z,93.04
2023-08-30T13:48:33.877Z,92.16
2023-08-30T13:51:00.190Z,91.80
2023-08-30T13:53:26.677Z,91.86
2023-08-30T13:55:53.016Z,90.74
2023-08-30T13:58:19.631Z,90.73
2023-08-30T14:00:46.061Z,91.70
2023-08-30T14:03:12.946Z,91.23
2023-08-30T14:05:42.440Z,92.07
2023-08-30T14:08:09.080Z,92.16
2023-08-30T14:10:35.766Z,90.88
2023-08-30T14:13:02.245Z,90.94
2023-08-30T14:15:28.710Z,89.83
2023-08-30T14:17:55.198Z,90.79
2023-08-30T14:20:21.991Z,90.80
2023-08-30T14:22:48.280Z,88.77
2023-08-30T14:25:14.980Z,89.88
2023-08-30T14:27:41.308Z,89.87
2023-08-30T14:30:09.343Z,90.94
2023-08-30T14:32:35.751Z,90.99
2023-08-30T14:35:04.204Z,91.21
2023-08-30T14:37:30.546Z,90.75
2023-08-30T14:39:56.845Z,91.70
2023-08-30T14:42:23.632Z,91.52
2023-08-30T14:44:51.395Z,91.40
2023-08-30T14:47:18.612Z,91.46
2023-08-30T14:49:46.532Z,91.67
2023-08-30T14:52:14.090Z,91.75
2023-08-30T14:54:40.953Z,91.66
2023-08-30T14:57:07.573Z,91.29
2023-08-30T14:59:33.951Z,91.50
2023-08-30T15:02:00.264Z,91.90
2023-08-30T15:04:27.075Z,92.29
2023-08-30T15:06:53.599Z,92.76
2023-08-30T15:09:19.937Z,92.60
2023-08-30T15:11:46.302Z,93.48
2023-08-30T15:14:12.808Z,92.53
2023-08-30T15:16:39.215Z,91.97
2023-08-30T15:19:05.577Z,92.46
2023-08-30T15:21:31.952Z,93.07
2023-08-30T15:23:58.320Z,92.99
2023-08-30T15:26:25.814Z,92.49
2023-08-30T15:28:52.203Z,92.38
2023-08-30T15:31:21.806Z,92.71
2023-08-30T15:33:48.593Z,92.58
2023-08-30T15:36:15.028Z,93.13
2023-08-30T15:38:45.446Z,93.16
2023-08-30T15:41:12.407Z,93.22
2023-08-30T15:43:39.948Z,93.39
2023-08-30T15:46:10.771Z,93.30
2023-08-30T15:48:38.567Z,92.70
2023-08-30T15:51:08.797Z,92.66
2023-08-30T15:53:41.298Z,93.18
2023-08-30T15:56:07.825Z,93.60
2023-08-30T15:58:34.732Z,93.06
2023-08-30T16:01:05.690Z,93.15
2023-08-30T16:03:32.399Z,94.01
2023-08-30T16:05:59.102Z,93.72
2023-08-30T16:08:28.154Z,93.61
2023-08-30T16:10:55.814Z,93.55
2023-08-30T16:13:22.279Z,94.07
2023-08-30T16:15:48.641Z,93.80
2023-08-30T16:18:16.245Z,93.80
2023-08-30T16:20:42.625Z,94.18
2023-08-30T16:23:08.947Z,94.28
2023-08-30T16:25:35.252Z,93.93
2023-08-30T16:28:01.581Z,93.89
2023-08-30T16:30:29.686Z,94.25
2023-08-30T16:32:56.401Z,93.68
2023-08-30T16:35:24.937Z,93.70
2023-08-30T16:37:51.277Z,93.67
2023-08-30T16:40:17.740Z,93.52
2023-08-30T16:42:44.045Z,93.66
2023-08-30T16:45:10.596Z,94.45
2023-08-30T16:47:52.013Z,94.30
2023-08-30T16:50:24.755Z,94.42
2023-08-30T16:52:51.101Z,94.37
2023-08-30T16:55:19.790Z,95.51
2023-08-30T16:57:46.461Z,94.87
2023-08-30T17:00:13.571Z,94.77
2023-08-30T17:02:41.174Z,95.03
2023-08-30T17:05:08.327Z,95.46
2023-08-30T17:07:34.684Z,96.01
2023-08-30T17:10:01.025Z,95.16
2023-08-30T17:12:27.342Z,96.12
2023-08-30T17:14:53.745Z,96.14
2023-08-30T17:17:20.140Z,96.65
2023-08-30T17:19:46.998Z,96.45
2023-08-30T17:22:13.402Z,96.32
2023-08-30T17:24:39.756Z,96.68
2023-08-30T17:27:11.420Z,96.26
2023-08-30T17:29:38.524Z,97.32
2023-08-30T17:35:15.925Z,96.42
2023-08-30T17:37:44.856Z,96.54
2023-08-30T17:40:13.111Z,97.07
2023-08-30T17:42:41.857Z,96.96
2023-08-30T17:45:20.507Z,96.43
2023-08-30T17:47:49.591Z,95.95
2023-08-30T17:50:17.805Z,96.42
2023-08-30T17:52:45.586Z,96.21
2023-08-30T17:55:16.293Z,96.43
2023-08-30T17:57:44.663Z,96.02
2023-08-30T18:00:15.265Z,95.95
2023-08-30T18:02:45.605Z,95.83
2023-08-30T18:05:15.524Z,95.82
2023-08-30T18:07:45.605Z,95.59
2023-08-30T18:10:14.208Z,95.66
2023-08-30T18:12:43.173Z,95.61
2023-08-30T18:15:11.104Z,95.85
2023-08-30T18:17:39.182Z,95.83
2023-08-30T18:20:08.896Z,96.04
2023-08-30T18:22:37.045Z,95.99
2023-08-30T18:25:05.772Z,96.11
2023-08-30T18:27:34.017Z,95.90
2023-08-30T18:30:05.044Z,96.80
2023-08-30T18:32:33.891Z,96.84
2023-08-30T18:35:02.054Z,96.54
2023-08-30T18:37:30.525Z,96.76
2023-08-30T18:39:58.287Z,96.95
2023-08-30T18:42:28.317Z,97.92
2023-08-30T18:44:56.112Z,98.47
2023-08-30T18:47:24.509Z,97.38
2023-08-30T18:49:52.307Z,97.49
2023-08-30T18:52:20.232Z,97.72
2023-08-30T18:54:48.177Z,97.34
2023-08-30T18:57:16.154Z,97.35
2023-08-30T18:59:45.378Z,97.45
2023-08-30T19:02:14.302Z,97.41
2023-08-30T19:04:42.651Z,97.25
2023-08-30T19:07:10.531Z,96.83
2023-08-30T19:09:42.046Z,97.12
2023-08-30T19:12:09.861Z,97.22
2023-08-30T19:14:37.701Z,97.40
2023-08-30T19:17:05.491Z,97.72
2023-08-30T19:19:34.445Z,97.88
2023-08-30T19:22:02.843Z,98.47
2023-08-30T19:24:35.668Z,97.37
2023-08-30T19:27:12.398Z,97.64
2023-08-30T19:29:40.428Z,97.43
2023-08-30T19:32:08.237Z,97.36
2023-08-30T19:34:36.061Z,97.21
2023-08-30T19:37:04.321Z,97.96
2023-08-30T19:39:32.192Z,97.81
2023-08-30T19:42:00.617Z,97.39
2023-08-30T19:44:28.523Z,97.46
2023-08-30T19:47:00.993Z,98.70
2023-08-30T19:49:29.181Z,98.45
2023-08-30T19:51:57.031Z,97.82
2023-08-30T19:54:24.870Z,99.15
2023-08-30T19:56:53.063Z,98.37
2023-08-30T19:59:20.878Z,98.24
2023-08-30T20:01:48.770Z,98.34
2023-08-30T20:04:16.652Z,98.51
2023-08-30T20:06:44.492Z,98.07
2023-08-30T20:09:12.242Z,98.53
2023-08-30T20:11:40.937Z,98.33
2023-08-30T20:14:08.754Z,98.22
2023-08-30T20:16:36.603Z,98.29
2023-08-30T20:19:05.029Z,98.27
2023-08-30T20:21:35.112Z,98.20
2023-08-30T20:24:04.684Z,98.12
2023-08-30T20:26:33.214Z,97.93
2023-08-30T20:29:00.997Z,97.74
2023-08-30T20:31:30.008Z,98.02
2023-08-30T20:33:58.174Z,97.86
2023-08-30T20:36:34.564Z,98.12
2023-08-30T20:39:08.159Z,97.99
2023-08-30T20:41:36.066Z,97.74
2023-08-30T20:44:04.742Z,97.58
2023-08-30T20:46:33.102Z,97.35
2023-08-30T20:49:01.034Z,97.47
2023-08-30T20:51:29.231Z,97.21
2023-08-30T20:54:02.074Z,97.06
2023-08-30T20:56:30.422Z,97.14
2023-08-30T20:59:01.898Z,97.26
2023-08-30T21:01:31.579Z,97.07
2023-08-30T21:03:59.924Z,97.26
2023-08-30T21:06:28.634Z,96.96
2023-08-30T21:08:57.714Z,97.18
2023-08-30T21:11:25.843Z,97.17
2023-08-30T21:13:53.609Z,97.01
2023-08-30T21:16:21.439Z,97.08
2023-08-30T21:18:49.388Z,97.03
2023-08-30T21:21:17.410Z,97.19
2023-08-30T21:23:45.149Z,97.23
2023-08-30T21:26:13.445Z,97.22
2023-08-30T21:28:41.123Z,97.95
2023-08-30T21:31:08.974Z,97.57
2023-08-30T21:33:36.745Z,97.87
2023-08-30T21:36:04.999Z,97.59
2023-08-30T21:38:34.012Z,97.77
2023-08-30T21:41:02.100Z,97.56
2023-08-30T21:43:29.791Z,97.74
2023-08-30T21:45:57.619Z,97.75
2023-08-30T21:48:25.526Z,97.59
2023-08-30T21:50:56.426Z,97.74
2023-08-30T21:53:24.666Z,97.62
2023-08-30T21:55:52.400Z,97.73
2023-08-30T21:58:21.127Z,97.60
2023-08-30T22:00:50.014Z,97.54
2023-08-30T22:03:19.169Z,97.51
2023-08-30T22:05:47.012Z,97.63
2023-08-30T22:08:14.711Z,97.72
2023-08-30T22:10:42.722Z,97.24
2023-08-30T22:13:10.662Z,97.35
2023-08-30T22:15:38.485Z,98.08
2023-08-30T22:18:06.291Z,97.59
2023-08-30T22:20:34.018Z,97.75
2023-08-30T22:23:03.499Z,97.97
2023-08-30T22:25:31.235Z,97.62
2023-08-30T22:28:00.918Z,97.50
2023-08-30T22:30:28.682Z,97.28
2023-08-30T22:32:57.002Z,97.23
2023-08-30T22:35:24.992Z,97.40
2023-08-30T22:37:53.078Z,97.37
2023-08-30T22:40:20.907Z,97.75
2023-08-30T22:42:48.769Z,97.57
2023-08-30T22:45:16.684Z,97.28
2023-08-30T22:47:47.083Z,97.14
2023-08-30T22:50:14.913Z,97.18
2023-08-30T22:52:42.651Z,97.57
2023-08-30T22:55:10.479Z,97.05
2023-08-30T22:57:38.353Z,96.85
2023-08-30T23:00:09.903Z,97.00
2023-08-30T23:02:38.954Z,96.89
2023-08-30T23:05:07.635Z,96.93
2023-08-30T23:07:35.443Z,97.42
2023-08-30T23:10:05.474Z,96.92
2023-08-30T23:12:34.083Z,96.90
2023-08-30T23:15:02.136Z,96.90
2023-08-30T23:17:30.265Z,97.52
2023-08-30T23:19:59.324Z,97.07
2023-08-30T23:22:27.150Z,97.35
2023-08-30T23:24:54.853Z,97.02
2023-08-30T23:27:22.712Z,97.21
2023-08-30T23:29:50.398Z,97.03
2023-08-30T23:32:58.556Z,97.03
2023-08-30T23:35:27.364Z,96.92
2023-08-30T23:37:55.236Z,97.26
2023-08-30T23:40:24.350Z,97.21
2023-08-30T23:42:52.123Z,97.62
2023-08-30T23:45:21.467Z,97.28
2023-08-30T23:47:49.303Z,97.64
2023-08-30T23:50:17.050Z,97.53
2023-08-30T23:52:46.026Z,97.36
2023-08-30T23:55:13.798Z,97.09
2023-08-30T23:57:41.978Z,97.13
